createdAt,value
2017-02-13T00:00:26.800Z,-0.97
2017-02-13T00:01:36.291Z,-1.04
2017-02-13T00:02:45.295Z,-1.01
2017-02-13T00:03:54.275Z,-0.97
2017-02-13T00:05:03.376Z,-0.99
2017-02-13T00:06:12.460Z,-1.01
2017-02-13T00:07:21.443Z,-0.94
2017-02-13T00:08:30.674Z,-1.02
2017-02-13T00:09:39.751Z,-0.99
2017-02-13T00:10:48.834Z,-0.98
2017-02-13T00:11:57.899Z,-0.97
2017-02-13T00:13:06.867Z,-1.01
2017-02-13T00:14:15.854Z,-0.98
2017-02-13T00:15:24.850Z,-0.91
2017-02-13T00:16:33.934Z,-1.01
2017-02-13T00:17:42.905Z,-1.04
2017-02-13T00:18:52.296Z,-1.04
2017-02-13T00:20:01.264Z,-1.1
2017-02-13T00:21:10.242Z,-1.16
2017-02-13T00:22:19.214Z,-1.16
2017-02-13T00:23:28.179Z,-1.28
2017-02-13T00:24:37.252Z,-1.23
2017-02-13T00:25:46.235Z,-1.25
2017-02-13T00:26:55.241Z,-1.27
2017-02-13T00:28:04.246Z,-1.33
2017-02-13T00:29:13.224Z,-1.16
2017-02-13T00:30:22.204Z,-1.22
2017-02-13T00:31:31.174Z,-1.22
2017-02-13T00:32:40.144Z,-1.33
2017-02-13T00:33:49.117Z,-1.31
2017-02-13T00:34:58.081Z,-1.33
2017-02-13T00:36:07.100Z,-1.37
2017-02-13T00:37:16.078Z,-1.38
2017-02-13T00:38:25.066Z,-1.4
2017-02-13T00:39:34.036Z,-1.41
2017-02-13T00:40:43.412Z,-1.35
2017-02-13T00:41:52.408Z,-1.38
2017-02-13T00:43:01.377Z,-1.28
2017-02-13T00:44:10.357Z,-1.28
2017-02-13T00:45:19.603Z,-1.33
2017-02-13T00:46:28.582Z,-1.37
2017-02-13T00:47:37.565Z,-1.43
2017-02-13T00:48:46.620Z,-1.4
2017-02-13T00:49:55.589Z,-1.38
2017-02-13T00:51:04.568Z,-1.49
2017-02-13T00:52:13.553Z,-1.51
2017-02-13T00:53:22.540Z,-1.55
2017-02-13T00:54:31.522Z,-1.58
2017-02-13T00:55:40.612Z,-1.67
2017-02-13T00:56:49.683Z,-1.72
2017-02-13T00:57:59.062Z,-1.87
2017-02-13T00:59:08.115Z,-1.73
2017-02-13T01:00:17.099Z,-1.79
2017-02-13T01:01:26.080Z,-1.79
2017-02-13T01:02:35.078Z,-1.87
2017-02-13T01:03:44.176Z,-1.85
2017-02-13T01:04:53.164Z,-1.76
2017-02-13T01:06:02.148Z,-1.8
2017-02-13T01:07:11.122Z,-2.02
2017-02-13T01:08:20.098Z,-2.03
2017-02-13T01:09:29.081Z,-1.92
2017-02-13T01:10:38.467Z,-1.85
2017-02-13T01:11:47.453Z,-1.85
2017-02-13T01:12:56.423Z,-1.85
2017-02-13T01:14:06.003Z,-1.85
2017-02-13T01:15:14.996Z,-1.85
2017-02-13T01:16:24.057Z,-1.94
2017-02-13T01:17:33.056Z,-1.8
2017-02-13T01:18:42.040Z,-1.8
2017-02-13T01:19:51.023Z,-1.85
2017-02-13T01:21:00.111Z,-1.82
2017-02-13T01:22:09.078Z,-1.77
2017-02-13T01:23:18.231Z,-1.82
2017-02-13T01:24:27.223Z,-1.74
2017-02-13T01:25:36.207Z,-1.91
2017-02-13T01:26:45.189Z,-1.82
2017-02-13T01:27:54.165Z,-1.8
2017-02-13T01:29:03.315Z,-1.8
2017-02-13T01:30:12.292Z,-1.94
2017-02-13T01:31:21.299Z,-1.91
2017-02-13T01:32:30.277Z,-1.95
2017-02-13T01:33:39.255Z,-2.02
2017-02-13T01:34:48.343Z,-2.06
2017-02-13T01:35:57.414Z,-2.02
2017-02-13T01:37:06.805Z,-1.98
2017-02-13T01:38:15.786Z,-2
2017-02-13T01:39:24.760Z,-2.02
2017-02-13T01:40:33.760Z,-2.05
2017-02-13T01:41:42.728Z,-2.2
2017-02-13T01:42:51.695Z,-2.24
2017-02-13T01:44:00.787Z,-2.3
2017-02-13T01:45:09.760Z,-2.37
2017-02-13T01:46:18.744Z,-2.42
2017-02-13T01:47:27.738Z,-2.39
2017-02-13T01:48:36.799Z,-2.4
2017-02-13T01:49:45.801Z,-2.26
2017-02-13T01:50:54.783Z,-2.4
2017-02-13T01:52:03.777Z,-2.34
2017-02-13T01:53:12.758Z,-2.24
2017-02-13T01:54:21.850Z,-2.13
2017-02-13T01:55:31.245Z,-2.24
2017-02-13T01:56:40.227Z,-2.24
2017-02-13T01:57:49.201Z,-2.2
2017-02-13T01:58:58.181Z,-2.16
2017-02-13T02:00:07.183Z,-2.16
2017-02-13T02:01:16.153Z,-2.2
2017-02-13T02:02:25.221Z,-2.15
2017-02-13T02:03:34.211Z,-2.21
2017-02-13T02:04:43.203Z,-2.2
2017-02-13T02:05:52.191Z,-2.15
2017-02-13T02:07:01.252Z,-2.2
2017-02-13T02:08:10.234Z,-2.18
2017-02-13T02:09:19.232Z,-2.26
2017-02-13T02:10:28.203Z,-2.15
2017-02-13T02:11:37.170Z,-2.16
2017-02-13T02:12:46.174Z,-2.3
2017-02-13T02:13:55.565Z,-2.21
2017-02-13T02:15:04.541Z,-2.15
2017-02-13T02:16:13.520Z,-2.16
2017-02-13T02:17:22.489Z,-2.12
2017-02-13T02:18:31.458Z,-2.18
2017-02-13T02:19:42.284Z,-2.18
2017-02-13T02:20:51.277Z,-2.16
2017-02-13T02:22:00.968Z,-2.26
2017-02-13T02:23:10.022Z,-2.34
2017-02-13T02:24:20.439Z,-2.23
2017-02-13T02:25:29.971Z,-2.21
2017-02-13T02:26:40.653Z,-2.23
2017-02-13T02:27:51.331Z,-2.13
2017-02-13T02:29:01.185Z,-2.13
2017-02-13T02:30:10.706Z,-2.2
2017-02-13T02:31:20.238Z,-2.34
2017-02-13T02:32:29.241Z,-2.34
2017-02-13T02:33:38.934Z,-2.26
2017-02-13T02:34:47.923Z,-2.34
2017-02-13T02:35:57.068Z,-2.2
2017-02-13T02:37:06.148Z,-2.21
2017-02-13T02:38:15.224Z,-2.29
2017-02-13T02:39:24.187Z,-2.21
2017-02-13T02:40:33.158Z,-2.16
2017-02-13T02:41:42.633Z,-2.24
2017-02-13T02:42:51.649Z,-2.16
2017-02-13T02:44:00.673Z,-2.3
2017-02-13T02:45:09.647Z,-2.16
2017-02-13T02:46:18.622Z,-2.21
2017-02-13T02:47:27.606Z,-2.15
2017-02-13T02:48:36.572Z,-2.18
2017-02-13T02:49:45.557Z,-2.12
2017-02-13T02:50:54.613Z,-2.09
2017-02-13T02:52:03.597Z,-2.12
2017-02-13T02:53:12.663Z,-2.13
2017-02-13T02:54:21.668Z,-2.09
2017-02-13T02:55:30.668Z,-2.06
2017-02-13T02:56:39.645Z,-1.98
2017-02-13T02:57:48.620Z,-1.98
2017-02-13T02:58:57.694Z,-1.97
2017-02-13T03:00:06.684Z,-2.09
2017-02-13T03:01:15.699Z,-2.09
2017-02-13T03:02:24.691Z,-2.1
2017-02-13T03:03:33.695Z,-2.08
2017-02-13T03:04:42.665Z,-2.16
2017-02-13T03:05:51.816Z,-2.12
2017-02-13T03:07:00.896Z,-2.03
2017-02-13T03:08:09.886Z,-2.12
2017-02-13T03:09:18.946Z,-2.09
2017-02-13T03:10:28.053Z,-2.23
2017-02-13T03:11:37.053Z,-2.27
2017-02-13T03:12:46.025Z,-2.32
2017-02-13T03:13:54.998Z,-2.29
2017-02-13T03:15:04.000Z,-2.3
2017-02-13T03:16:15.618Z,-2.29
2017-02-13T03:17:25.393Z,-2.3
2017-02-13T03:18:35.478Z,-2.35
2017-02-13T03:19:45.610Z,-2.37
2017-02-13T03:20:54.599Z,-2.4
2017-02-13T03:22:06.033Z,-2.4
2017-02-13T03:23:15.103Z,-2.35
2017-02-13T03:24:25.450Z,-2.4
2017-02-13T03:25:34.462Z,-2.43
2017-02-13T03:26:43.867Z,-2.42
2017-02-13T03:27:52.923Z,-2.37
2017-02-13T03:29:03.102Z,-2.34
2017-02-13T03:30:12.099Z,-2.29
2017-02-13T03:31:23.393Z,-2.3
2017-02-13T03:32:33.401Z,-2.2
2017-02-13T03:33:42.611Z,-2.26
2017-02-13T03:34:54.446Z,-2.3
2017-02-13T03:36:03.605Z,-2.16
2017-02-13T03:37:15.793Z,-2.27
2017-02-13T03:38:25.801Z,-2.13
2017-02-13T03:39:35.052Z,-2.18
2017-02-13T03:40:46.257Z,-2.16
2017-02-13T03:41:55.221Z,-2.16
2017-02-13T03:43:06.024Z,-2.12
2017-02-13T03:44:15.012Z,-2.09
2017-02-13T03:45:25.412Z,-1.97
2017-02-13T03:46:34.450Z,-2
2017-02-13T03:47:44.507Z,-1.94
2017-02-13T03:48:53.565Z,-2.02
2017-02-13T03:50:03.733Z,-1.95
2017-02-13T03:51:12.730Z,-2.03
2017-02-13T03:52:23.114Z,-2
2017-02-13T03:53:33.441Z,-1.91
2017-02-13T03:54:42.620Z,-1.98
2017-02-13T03:55:52.873Z,-2.12
2017-02-13T03:57:01.889Z,-2.05
2017-02-13T03:58:13.229Z,-2.09
2017-02-13T03:59:22.209Z,-2.18
2017-02-13T04:00:33.010Z,-2.12
2017-02-13T04:01:42.091Z,-2.12
2017-02-13T04:02:53.096Z,-2.18
2017-02-13T04:04:03.300Z,-2.21
2017-02-13T04:05:12.369Z,-2.3
2017-02-13T04:06:22.507Z,-2.35
2017-02-13T04:07:31.486Z,-2.34
2017-02-13T04:08:41.369Z,-2.35
2017-02-13T04:09:50.351Z,-2.4
2017-02-13T04:11:00.290Z,-2.35
2017-02-13T04:12:09.345Z,-2.39
2017-02-13T04:13:19.291Z,-2.34
2017-02-13T04:14:28.254Z,-2.43
2017-02-13T04:15:39.755Z,-2.4
2017-02-13T04:16:48.821Z,-2.39
2017-02-13T04:17:59.034Z,-2.39
2017-02-13T04:19:08.019Z,-2.34
2017-02-13T04:20:18.046Z,-2.29
2017-02-13T04:21:27.014Z,-2.24
2017-02-13T04:22:36.622Z,-2.37
2017-02-13T04:23:45.612Z,-2.3
2017-02-13T04:24:57.274Z,-2.29
2017-02-13T04:26:07.524Z,-2.24
2017-02-13T04:27:16.635Z,-2.26
2017-02-13T04:28:27.039Z,-2.23
2017-02-13T04:29:36.113Z,-2.21
2017-02-13T04:30:45.353Z,-2.26
2017-02-13T04:31:54.461Z,-2.26
2017-02-13T04:33:03.981Z,-2.27
2017-02-13T04:34:12.955Z,-2.29
2017-02-13T04:35:22.792Z,-2.34
2017-02-13T04:36:31.788Z,-2.34
2017-02-13T04:37:41.442Z,-2.27
2017-02-13T04:38:50.513Z,-2.35
2017-02-13T04:40:00.633Z,-2.24
2017-02-13T04:41:09.616Z,-2.32
2017-02-13T04:42:21.135Z,-2.39
2017-02-13T04:43:30.117Z,-2.39
2017-02-13T04:44:39.962Z,-2.39
2017-02-13T04:45:49.089Z,-2.34
2017-02-13T04:46:59.501Z,-2.35
2017-02-13T04:48:08.501Z,-2.3
2017-02-13T04:49:18.390Z,-2.39
2017-02-13T04:50:27.455Z,-2.39
2017-02-13T04:51:36.759Z,-2.35
2017-02-13T04:52:45.746Z,-2.27
2017-02-13T04:53:58.110Z,-2.29
2017-02-13T04:55:07.912Z,-2.32
2017-02-13T04:56:16.977Z,-2.3
2017-02-13T04:57:26.928Z,-2.29
2017-02-13T04:58:35.991Z,-2.27
2017-02-13T04:59:46.015Z,-2.35
2017-02-13T05:00:55.082Z,-2.35
2017-02-13T05:02:05.809Z,-2.23
2017-02-13T05:03:14.771Z,-2.26
2017-02-13T05:04:24.566Z,-2.23
2017-02-13T05:05:34.031Z,-2.29
2017-02-13T05:06:44.148Z,-2.29
2017-02-13T05:07:53.801Z,-2.32
2017-02-13T05:09:05.931Z,-2.29
2017-02-13T05:10:15.835Z,-2.26
2017-02-13T05:11:24.815Z,-2.2
2017-02-13T05:12:34.679Z,-2.27
2017-02-13T05:13:43.658Z,-2.34
2017-02-13T05:14:53.563Z,-2.35
2017-02-13T05:16:02.538Z,-2.34
2017-02-13T05:17:14.123Z,-2.39
2017-02-13T05:18:23.126Z,-2.34
2017-02-13T05:19:33.610Z,-2.35
2017-02-13T05:20:42.580Z,-2.35
2017-02-13T05:21:53.970Z,-2.39
2017-02-13T05:23:04.081Z,-2.37
2017-02-13T05:24:13.064Z,-2.39
2017-02-13T05:25:22.755Z,-2.39
2017-02-13T05:26:31.741Z,-2.4
2017-02-13T05:27:41.904Z,-2.45
2017-02-13T05:28:51.052Z,-2.46
2017-02-13T05:30:01.080Z,-2.42
2017-02-13T05:31:10.060Z,-2.53
2017-02-13T05:32:21.461Z,-2.37
2017-02-13T05:33:30.546Z,-2.43
2017-02-13T05:34:40.900Z,-2.4
2017-02-13T05:35:49.878Z,-2.42
2017-02-13T05:36:59.532Z,-2.37
2017-02-13T05:38:08.530Z,-2.43
2017-02-13T05:39:20.211Z,-2.52
2017-02-13T05:40:30.516Z,-2.52
2017-02-13T05:41:39.947Z,-2.64
2017-02-13T05:42:51.113Z,-2.67
2017-02-13T05:44:00.094Z,-2.61
2017-02-13T05:45:10.968Z,-2.64
2017-02-13T05:46:19.995Z,-2.64
2017-02-13T05:47:29.076Z,-2.58
2017-02-13T05:48:38.056Z,-2.6
2017-02-13T05:49:47.779Z,-2.6
2017-02-13T05:50:56.747Z,-2.64
2017-02-13T05:52:06.748Z,-2.67
2017-02-13T05:53:15.753Z,-2.7
2017-02-13T05:54:25.406Z,-2.7
2017-02-13T05:55:34.784Z,-2.71
2017-02-13T05:56:44.979Z,-2.67
2017-02-13T05:57:53.985Z,-2.63
2017-02-13T05:59:03.382Z,-2.61
2017-02-13T06:00:12.446Z,-2.63
2017-02-13T06:01:22.649Z,-2.68
2017-02-13T06:02:32.144Z,-2.64
2017-02-13T06:03:43.367Z,-2.56
2017-02-13T06:04:53.084Z,-2.66
2017-02-13T06:06:03.184Z,-2.66
2017-02-13T06:07:14.760Z,-2.61
2017-02-13T06:08:23.908Z,-2.64
2017-02-13T06:09:35.091Z,-2.68
2017-02-13T06:10:44.065Z,-2.55
2017-02-13T06:11:54.091Z,-2.56
2017-02-13T06:13:03.366Z,-2.64
2017-02-13T06:14:13.860Z,-2.67
2017-02-13T06:15:25.536Z,-2.66
2017-02-13T06:16:34.729Z,-2.61
2017-02-13T06:17:45.376Z,-2.61
2017-02-13T06:18:54.459Z,-2.64
2017-02-13T06:20:05.037Z,-2.53
2017-02-13T06:21:15.660Z,-2.5
2017-02-13T06:22:24.638Z,-2.46
2017-02-13T06:23:34.900Z,-2.53
2017-02-13T06:24:43.883Z,-2.4
2017-02-13T06:25:52.856Z,-2.5
2017-02-13T06:27:01.843Z,-2.56
2017-02-13T06:28:10.812Z,-2.46
2017-02-13T06:29:19.893Z,-2.46
2017-02-13T06:30:28.868Z,-2.45
2017-02-13T06:31:37.855Z,-2.55
2017-02-13T06:32:46.828Z,-2.46
2017-02-13T06:33:55.815Z,-2.48
2017-02-13T06:35:04.795Z,-2.45
2017-02-13T06:36:13.768Z,-2.46
2017-02-13T06:37:22.749Z,-2.5
2017-02-13T06:38:31.814Z,-2.5
2017-02-13T06:39:40.814Z,-2.56
2017-02-13T06:40:49.787Z,-2.46
2017-02-13T06:41:58.787Z,-2.6
2017-02-13T06:43:07.847Z,-2.66
2017-02-13T06:44:16.896Z,-2.53
2017-02-13T06:45:25.910Z,-2.6
2017-02-13T06:46:34.886Z,-2.61
2017-02-13T06:47:43.870Z,-2.64
2017-02-13T06:48:52.940Z,-2.58
2017-02-13T06:50:01.929Z,-2.5
2017-02-13T06:51:10.910Z,-2.52
2017-02-13T06:52:20.292Z,-2.48
2017-02-13T06:53:29.264Z,-2.56
2017-02-13T06:54:38.277Z,-2.56
2017-02-13T06:55:47.336Z,-2.5
2017-02-13T06:56:56.316Z,-2.48
2017-02-13T06:58:05.301Z,-2.4
2017-02-13T06:59:14.387Z,-2.53
2017-02-13T07:00:23.450Z,-2.37
2017-02-13T07:01:32.464Z,-2.35
2017-02-13T07:02:41.440Z,-2.39
2017-02-13T07:03:50.408Z,-2.34
2017-02-13T07:04:59.385Z,-2.42
2017-02-13T07:06:08.772Z,-2.34
2017-02-13T07:07:17.755Z,-2.39
2017-02-13T07:08:27.146Z,-2.37
2017-02-13T07:09:36.124Z,-2.4
2017-02-13T07:10:45.268Z,-2.3
2017-02-13T07:11:54.254Z,-2.42
2017-02-13T07:13:03.353Z,-2.39
2017-02-13T07:14:12.420Z,-2.34
2017-02-13T07:15:21.403Z,-2.32
2017-02-13T07:16:30.467Z,-2.39
2017-02-13T07:17:39.445Z,-2.27
2017-02-13T07:18:48.520Z,-2.29
2017-02-13T07:19:57.489Z,-2.32
2017-02-13T07:21:06.554Z,-2.34
2017-02-13T07:22:15.535Z,-2.34
2017-02-13T07:23:24.523Z,-2.32
2017-02-13T07:24:33.502Z,-2.29
2017-02-13T07:25:42.574Z,-2.32
2017-02-13T07:26:51.568Z,-2.34
2017-02-13T07:28:00.554Z,-2.35
2017-02-13T07:29:09.530Z,-2.24
2017-02-13T07:30:18.520Z,-2.37
2017-02-13T07:31:27.488Z,-2.37
2017-02-13T07:32:36.562Z,-2.34
2017-02-13T07:33:45.543Z,-2.35
2017-02-13T07:34:54.613Z,-2.42
2017-02-13T07:36:03.694Z,-2.35
2017-02-13T07:37:12.695Z,-2.32
2017-02-13T07:38:21.689Z,-2.3
2017-02-13T07:39:30.660Z,-2.26
2017-02-13T07:40:39.634Z,-2.32
2017-02-13T07:41:49.025Z,-2.27
2017-02-13T07:42:58.003Z,-2.16
2017-02-13T07:44:07.068Z,-2.18
2017-02-13T07:45:16.063Z,-2.12
2017-02-13T07:46:25.128Z,-2.21
2017-02-13T07:47:34.098Z,-2.13
2017-02-13T07:48:43.181Z,-2.08
2017-02-13T07:49:52.161Z,-2
2017-02-13T07:51:01.156Z,-1.94
2017-02-13T07:52:10.124Z,-1.97
2017-02-13T07:53:19.179Z,-2.02
2017-02-13T07:54:28.153Z,-1.97
2017-02-13T07:55:37.170Z,-1.95
2017-02-13T07:56:46.239Z,-2
2017-02-13T07:57:55.632Z,-2.03
2017-02-13T07:59:04.613Z,-1.94
2017-02-13T08:00:13.587Z,-1.94
2017-02-13T08:01:22.565Z,-1.95
2017-02-13T08:02:31.536Z,-1.94
2017-02-13T08:03:40.552Z,-1.91
2017-02-13T08:04:49.526Z,-1.85
2017-02-13T08:05:58.610Z,-1.77
2017-02-13T08:07:07.595Z,-1.82
2017-02-13T08:08:16.588Z,-1.77
2017-02-13T08:09:25.550Z,-1.85
2017-02-13T08:10:34.538Z,-1.84
2017-02-13T08:11:43.524Z,-1.8
2017-02-13T08:12:52.497Z,-1.72
2017-02-13T08:14:01.510Z,-1.74
2017-02-13T08:15:10.886Z,-1.7
2017-02-13T08:16:19.855Z,-1.7
2017-02-13T08:17:28.825Z,-1.77
2017-02-13T08:18:37.831Z,-1.72
2017-02-13T08:19:46.808Z,-1.9
2017-02-13T08:20:56.217Z,-1.85
2017-02-13T08:22:05.291Z,-1.87
2017-02-13T08:23:14.750Z,-1.76
2017-02-13T08:24:23.732Z,-1.77
2017-02-13T08:25:32.706Z,-1.85
2017-02-13T08:26:41.730Z,-1.74
2017-02-13T08:27:50.711Z,-1.8
2017-02-13T08:28:59.687Z,-1.72
2017-02-13T08:30:08.660Z,-1.76
2017-02-13T08:31:17.655Z,-1.69
2017-02-13T08:32:26.687Z,-1.58
2017-02-13T08:33:35.852Z,-1.49
2017-02-13T08:34:44.833Z,-1.56
2017-02-13T08:35:53.812Z,-1.52
2017-02-13T08:37:02.791Z,-1.49
2017-02-13T08:38:11.862Z,-1.52
2017-02-13T08:39:20.855Z,-1.56
2017-02-13T08:40:29.832Z,-1.55
2017-02-13T08:41:38.885Z,-1.41
2017-02-13T08:42:47.854Z,-1.46
2017-02-13T08:43:57.334Z,-1.41
2017-02-13T08:45:06.329Z,-1.35
2017-02-13T08:46:15.296Z,-1.38
2017-02-13T08:47:24.362Z,-1.3
2017-02-13T08:48:33.427Z,-1.27
2017-02-13T08:49:42.911Z,-1.33
2017-02-13T08:50:51.898Z,-1.31
2017-02-13T08:52:00.889Z,-1.27
2017-02-13T08:53:09.890Z,-1.3
2017-02-13T08:54:19.315Z,-1.3
2017-02-13T08:55:28.288Z,-1.28
2017-02-13T08:56:37.263Z,-1.3
2017-02-13T08:57:46.240Z,-1.28
2017-02-13T08:58:55.218Z,-1.33
2017-02-13T09:00:04.216Z,-1.23
2017-02-13T09:01:13.209Z,-1.22
2017-02-13T09:02:22.182Z,-1.2
2017-02-13T09:03:31.164Z,-1.12
2017-02-13T09:04:40.139Z,-1.07
2017-02-13T09:05:49.152Z,-1.19
2017-02-13T09:06:58.125Z,-1.12
2017-02-13T09:08:07.107Z,-1.1
2017-02-13T09:09:16.177Z,-1.01
2017-02-13T09:10:25.237Z,-0.97
2017-02-13T09:11:34.309Z,-1.04
2017-02-13T09:12:43.346Z,-0.94
2017-02-13T09:13:52.334Z,-0.92
2017-02-13T09:15:01.319Z,-0.94
2017-02-13T09:16:10.399Z,-0.89
2017-02-13T09:17:19.364Z,-0.76
2017-02-13T09:18:28.356Z,-0.8
2017-02-13T09:19:37.330Z,-0.82
2017-02-13T09:20:46.364Z,-0.79
2017-02-13T09:21:55.349Z,-0.82
2017-02-13T09:23:04.321Z,-0.79
2017-02-13T09:24:13.289Z,-0.73
2017-02-13T09:25:22.275Z,-0.7
2017-02-13T09:26:31.339Z,-0.58
2017-02-13T09:27:40.329Z,-0.69
2017-02-13T09:28:49.313Z,-0.6
2017-02-13T09:29:58.385Z,-0.52
2017-02-13T09:31:07.357Z,-0.47
2017-02-13T09:32:16.428Z,-0.51
2017-02-13T09:33:25.519Z,-0.36
2017-02-13T09:34:34.490Z,-0.33
2017-02-13T09:35:45.341Z,-0.33
2017-02-13T09:36:55.723Z,-0.26
2017-02-13T09:38:04.694Z,-0.28
2017-02-13T09:39:13.662Z,-0.21
2017-02-13T09:40:22.672Z,-0.08
2017-02-13T09:41:31.748Z,-0.14
2017-02-13T09:42:40.742Z,-0.25
2017-02-13T09:43:49.737Z,-0.07
2017-02-13T09:44:58.721Z,-0.1
2017-02-13T09:46:07.714Z,-0.22
2017-02-13T09:47:17.189Z,-0.15
2017-02-13T09:48:26.174Z,-0.01
2017-02-13T09:49:35.155Z,-0.1
2017-02-13T09:50:44.168Z,0
2017-02-13T09:51:53.214Z,-0.05
2017-02-13T09:53:02.611Z,0.02
2017-02-13T09:54:11.597Z,0.15
2017-02-13T09:55:21.279Z,0.14
2017-02-13T09:56:31.715Z,0.17
2017-02-13T09:57:40.794Z,0.2
2017-02-13T09:58:50.150Z,0.21
2017-02-13T09:59:59.171Z,0.32
2017-02-13T10:01:08.836Z,0.36
2017-02-13T10:02:18.161Z,0.42
2017-02-13T10:03:27.499Z,0.42
2017-02-13T10:04:37.012Z,0.57
2017-02-13T10:05:46.076Z,0.5
2017-02-13T10:06:55.326Z,0.57
2017-02-13T10:08:04.914Z,0.55
2017-02-13T10:09:14.470Z,0.61
2017-02-13T10:10:24.090Z,0.62
2017-02-13T10:11:33.459Z,0.72
2017-02-13T10:12:43.041Z,0.79
2017-02-13T10:13:52.772Z,0.8
2017-02-13T10:15:02.122Z,0.79
2017-02-13T10:16:11.530Z,0.75
2017-02-13T10:17:20.518Z,0.68
2017-02-13T10:18:29.516Z,0.76
2017-02-13T10:19:38.499Z,0.7
2017-02-13T10:20:48.634Z,0.79
2017-02-13T10:21:58.452Z,0.83
2017-02-13T10:23:08.401Z,0.86
2017-02-13T10:24:18.089Z,0.83
2017-02-13T10:25:28.338Z,0.84
2017-02-13T10:26:37.860Z,0.9
2017-02-13T10:27:47.280Z,0.94
2017-02-13T10:28:56.670Z,1.02
2017-02-13T10:30:05.644Z,1.05
2017-02-13T10:31:15.026Z,1.11
2017-02-13T10:32:24.005Z,1.11
2017-02-13T10:33:32.983Z,1.15
2017-02-13T10:34:41.958Z,1.11
2017-02-13T10:35:50.939Z,1.12
2017-02-13T10:37:00.005Z,1.15
2017-02-13T10:38:08.981Z,1.12
2017-02-13T10:39:17.959Z,1.16
2017-02-13T10:40:27.349Z,1.22
2017-02-13T10:41:36.320Z,1.27
2017-02-13T10:42:45.301Z,1.4
2017-02-13T10:43:54.374Z,1.33
2017-02-13T10:45:03.355Z,1.34
2017-02-13T10:46:12.341Z,1.32
2017-02-13T10:47:21.401Z,1.33
2017-02-13T10:48:30.462Z,1.3
2017-02-13T10:49:39.446Z,1.32
2017-02-13T10:50:48.428Z,1.26
2017-02-13T10:51:57.412Z,1.37
2017-02-13T10:53:06.797Z,1.29
2017-02-13T10:54:15.886Z,1.33
2017-02-13T10:55:24.863Z,1.42
2017-02-13T10:56:33.830Z,1.32
2017-02-13T10:57:42.815Z,1.29
2017-02-13T10:58:51.799Z,1.23
2017-02-13T11:00:00.776Z,1.24
2017-02-13T11:01:09.763Z,1.27
2017-02-13T11:02:18.727Z,1.3
2017-02-13T11:03:27.728Z,1.22
2017-02-13T11:04:36.699Z,1.22
2017-02-13T11:05:45.716Z,1.24
2017-02-13T11:06:54.784Z,1.27
2017-02-13T11:08:03.763Z,1.27
2017-02-13T11:09:12.741Z,1.36
2017-02-13T11:10:22.148Z,1.48
2017-02-13T11:11:31.142Z,1.45
2017-02-13T11:12:40.122Z,1.6
2017-02-13T11:13:49.115Z,1.68
2017-02-13T11:14:58.082Z,1.68
2017-02-13T11:16:07.669Z,1.7
2017-02-13T11:17:16.653Z,1.81
2017-02-13T11:18:25.644Z,1.81
2017-02-13T11:19:34.638Z,1.84
2017-02-13T11:20:43.612Z,1.84
2017-02-13T11:21:52.594Z,1.86
2017-02-13T11:23:01.589Z,2.02
2017-02-13T11:24:10.558Z,1.95
2017-02-13T11:25:19.545Z,2
2017-02-13T11:26:28.514Z,1.95
2017-02-13T11:27:37.495Z,2.02
2017-02-13T11:28:46.492Z,2.09
2017-02-13T11:29:55.897Z,2.03
2017-02-13T11:31:04.986Z,2.06
2017-02-13T11:32:14.009Z,2.06
2017-02-13T11:33:23.413Z,2.16
2017-02-13T11:34:32.564Z,2.24
2017-02-13T11:35:41.559Z,2.24
2017-02-13T11:36:50.632Z,2.35
2017-02-13T11:38:00.008Z,2.31
2017-02-13T11:39:08.993Z,2.36
2017-02-13T11:40:17.989Z,2.38
2017-02-13T11:41:27.008Z,2.41
2017-02-13T11:42:35.988Z,2.41
2017-02-13T11:43:44.974Z,2.41
2017-02-13T11:44:53.942Z,2.39
2017-02-13T11:46:03.425Z,2.38
2017-02-13T11:47:12.417Z,2.59
2017-02-13T11:48:21.389Z,2.53
2017-02-13T11:49:30.380Z,2.59
2017-02-13T11:50:39.370Z,2.6
2017-02-13T11:51:48.353Z,2.75
2017-02-13T11:52:57.323Z,2.77
2017-02-13T11:54:06.319Z,2.69
2017-02-13T11:55:15.312Z,2.74
2017-02-13T11:56:24.282Z,2.75
2017-02-13T11:57:33.306Z,2.84
2017-02-13T11:58:42.385Z,2.69
2017-02-13T11:59:51.391Z,2.66
2017-02-13T12:01:00.447Z,2.74
2017-02-13T12:02:09.434Z,2.78
2017-02-13T12:03:18.430Z,2.67
2017-02-13T12:04:27.422Z,2.74
2017-02-13T12:05:36.430Z,2.72
2017-02-13T12:06:45.435Z,2.82
2017-02-13T12:07:54.614Z,2.79
2017-02-13T12:09:03.585Z,2.9
2017-02-13T12:10:12.576Z,2.95
2017-02-13T12:11:21.635Z,2.93
2017-02-13T12:12:30.639Z,2.99
2017-02-13T12:13:39.728Z,3.05
2017-02-13T12:14:48.714Z,3.15
2017-02-13T12:15:57.720Z,3.15
2017-02-13T12:17:06.789Z,3.11
2017-02-13T12:18:15.782Z,3.18
2017-02-13T12:19:24.760Z,3.15
2017-02-13T12:20:33.759Z,3.24
2017-02-13T12:21:42.911Z,3.21
2017-02-13T12:22:51.925Z,3.17
2017-02-13T12:24:00.949Z,3.29
2017-02-13T12:25:09.920Z,3.33
2017-02-13T12:26:18.909Z,3.15
2017-02-13T12:27:27.893Z,3.28
2017-02-13T12:28:36.903Z,3.24
2017-02-13T12:29:45.973Z,3.32
2017-02-13T12:30:55.792Z,3.33
2017-02-13T12:32:05.202Z,3.33
2017-02-13T12:33:14.212Z,3.42
2017-02-13T12:34:23.271Z,3.42
2017-02-13T12:35:32.680Z,3.43
2017-02-13T12:36:41.673Z,3.43
2017-02-13T12:37:50.747Z,3.4
2017-02-13T12:38:59.916Z,3.47
2017-02-13T12:40:08.918Z,3.51
2017-02-13T12:41:17.904Z,3.54
2017-02-13T12:42:26.918Z,3.57
2017-02-13T12:43:36.104Z,3.61
2017-02-13T12:45:36.205Z,3.54
2017-02-13T12:46:45.221Z,3.61
2017-02-13T12:47:54.327Z,3.58
2017-02-13T12:49:03.304Z,3.55
2017-02-13T12:50:12.279Z,3.62
2017-02-13T12:51:21.252Z,3.6
2017-02-13T12:52:30.332Z,3.61
2017-02-13T12:53:39.599Z,3.66
2017-02-13T12:54:49.714Z,3.68
2017-02-13T12:55:59.058Z,3.78
2017-02-13T12:57:08.531Z,3.79
2017-02-13T12:58:17.966Z,3.79
2017-02-13T12:59:27.002Z,3.79
2017-02-13T13:00:35.991Z,3.73
2017-02-13T13:01:45.463Z,3.78
2017-02-13T13:02:54.521Z,3.86
2017-02-13T13:04:03.515Z,3.79
2017-02-13T13:05:12.488Z,3.84
2017-02-13T13:06:21.485Z,3.73
2017-02-13T13:07:30.489Z,3.69
2017-02-13T13:08:39.481Z,3.66
2017-02-13T13:09:48.478Z,3.73
2017-02-13T13:10:58.103Z,3.75
2017-02-13T13:12:07.082Z,3.72
2017-02-13T13:13:16.057Z,3.7
2017-02-13T13:14:25.040Z,3.72
2017-02-13T13:15:34.033Z,3.7
2017-02-13T13:16:43.027Z,3.68
2017-02-13T13:17:52.020Z,3.73
2017-02-13T13:19:01.021Z,3.65
2017-02-13T13:20:10.015Z,3.73
2017-02-13T13:21:19.606Z,3.72
2017-02-13T13:22:28.599Z,3.68
2017-02-13T13:23:37.679Z,3.69
2017-02-13T13:24:46.775Z,3.65
2017-02-13T13:25:56.337Z,3.68
2017-02-13T13:27:05.396Z,3.69
2017-02-13T13:28:15.100Z,3.66
2017-02-13T13:29:25.262Z,3.75
2017-02-13T13:30:34.854Z,3.76
2017-02-13T13:31:43.845Z,3.68
2017-02-13T13:32:53.417Z,3.78
2017-02-13T13:34:03.049Z,3.78
2017-02-13T13:35:12.117Z,3.76
2017-02-13T13:36:21.624Z,3.83
2017-02-13T13:37:30.599Z,3.84
2017-02-13T13:38:39.606Z,3.83
2017-02-13T13:39:48.936Z,3.8
2017-02-13T13:40:58.284Z,3.9
2017-02-13T13:42:07.764Z,3.9
2017-02-13T13:43:20.570Z,3.8
2017-02-13T13:44:30.587Z,3.96
2017-02-13T13:45:39.736Z,3.94
2017-02-13T13:46:49.609Z,3.84
2017-02-13T13:47:58.957Z,3.88
2017-02-13T13:49:07.940Z,3.93
2017-02-13T13:50:17.504Z,3.78
2017-02-13T13:51:27.733Z,3.87
2017-02-13T13:52:36.796Z,3.84
2017-02-13T13:53:46.377Z,3.9
2017-02-13T13:54:55.349Z,3.83
2017-02-13T13:56:04.358Z,3.96
2017-02-13T13:57:13.405Z,3.94
2017-02-13T13:58:22.452Z,3.9
2017-02-13T13:59:31.517Z,4.05
2017-02-13T14:00:40.500Z,4.05
2017-02-13T14:01:49.579Z,4.06
2017-02-13T14:02:58.559Z,4.11
2017-02-13T14:04:07.523Z,4.11
2017-02-13T14:05:17.333Z,4.2
2017-02-13T14:06:26.342Z,4.15
2017-02-13T14:07:35.742Z,4.18
2017-02-13T14:08:44.741Z,4.27
2017-02-13T14:09:53.722Z,4.29
2017-02-13T14:11:02.705Z,4.29
2017-02-13T14:12:11.681Z,4.32
2017-02-13T14:13:20.667Z,4.3
2017-02-13T14:14:29.752Z,4.3
2017-02-13T14:15:38.742Z,4.27
2017-02-13T14:16:47.804Z,4.3
2017-02-13T14:17:56.799Z,4.33
2017-02-13T14:19:05.782Z,4.33
2017-02-13T14:20:15.198Z,4.34
2017-02-13T14:21:24.196Z,4.33
2017-02-13T14:22:33.171Z,4.3
2017-02-13T14:23:42.164Z,4.2
2017-02-13T14:24:51.143Z,4.27
2017-02-13T14:26:00.133Z,4.22
2017-02-13T14:27:09.122Z,4.15
2017-02-13T14:28:18.103Z,4.05
2017-02-13T14:29:27.072Z,4.06
2017-02-13T14:30:36.065Z,4.18
2017-02-13T14:31:45.149Z,4.11
2017-02-13T14:32:54.148Z,4.11
2017-02-13T14:34:03.131Z,4.12
2017-02-13T14:35:12.215Z,4.14
2017-02-13T14:36:21.616Z,4.08
2017-02-13T14:37:30.693Z,4.09
2017-02-13T14:38:39.681Z,4.02
2017-02-13T14:39:48.776Z,4.08
2017-02-13T14:40:57.754Z,4.02
2017-02-13T14:42:06.721Z,4.08
2017-02-13T14:43:15.707Z,3.98
2017-02-13T14:44:24.796Z,3.94
2017-02-13T14:45:33.789Z,3.98
2017-02-13T14:46:42.879Z,3.9
2017-02-13T14:47:51.877Z,3.84
2017-02-13T14:49:00.856Z,3.91
2017-02-13T14:50:09.932Z,3.76
2017-02-13T14:51:18.900Z,3.78
2017-02-13T14:52:28.135Z,3.8
2017-02-13T14:53:37.344Z,3.83
2017-02-13T14:54:46.348Z,3.8
2017-02-13T14:55:55.410Z,3.76
2017-02-13T14:57:04.401Z,3.8
2017-02-13T14:58:13.793Z,3.79
2017-02-13T14:59:22.770Z,3.78
2017-02-13T15:00:31.749Z,3.78
2017-02-13T15:01:40.830Z,3.76
2017-02-13T15:02:49.830Z,3.72
2017-02-13T15:03:58.804Z,3.7
2017-02-13T15:05:07.795Z,3.65
2017-02-13T15:06:17.611Z,3.6
2017-02-13T15:07:26.617Z,3.55